Time;durP1;ratioP1;P1;durP2;ratioP2;P2;SDS_P1;SDS_P2;PMS_P1;PMS_P2;Temp;Humidity;BMP_temperature;BMP_pressure;BME280_temperature;BME280_humidity;BME280_pressure;Samples;Min_cycle;Max_cycle;Signal;HPM_P1;HPM_P2
2022/09/07 00:00:35;;;;;;;18.70;14.60;;;;;;;7.91;75.43;101096.83;1700805;84;21042;-74
2022/09/07 00:03:02;;;;;;;18.33;14.47;;;;;;;7.95;75.44;101093.38;1701165;84;21049;-73
2022/09/07 00:05:29;;;;;;;15.60;13.23;;;;;;;7.98;75.50;101095.20;1700837;83;21034;-74
2022/09/07 00:07:57;;;;;;;18.27;14.17;;;;;;;7.97;75.44;101096.70;1700821;84;21077;-72
2022/09/07 00:10:23;;;;;;;20.10;14.27;;;;;;;7.95;75.56;101093.38;1701103;83;21058;-73
2022/09/07 00:12:50;;;;;;;;;;;;;;;7.92;75.56;101094.49;1703517;84;21001;-72
2022/09/07 00:15:17;;;;;;;20.23;14.83;;;;;;;7.88;75.46;101098.94;1701189;84;20428;-73
2022/09/07 00:17:43;;;;;;;14.57;12.83;;;;;;;7.77;75.67;101098.16;1700475;83;21038;-74
2022/09/07 00:20:11;;;;;;;19.32;14.33;;;;;;;7.74;75.76;101101.61;1700568;84;21542;-73
2022/09/07 00:22:38;;;;;;;17.47;13.60;;;;;;;7.73;75.92;101097.30;1700754;84;21080;-71
2022/09/07 00:25:05;;;;;;;;;;;;;;;7.72;75.87;101098.28;1703349;84;21033;-72
2022/09/07 00:27:31;;;;;;;16.73;13.50;;;;;;;7.70;75.97;101102.91;1684800;84;20396;-72
2022/09/07 00:29:57;;;;;;;17.90;14.15;;;;;;;7.64;76.27;101101.69;1700650;83;21077;-73
2022/09/07 00:32:24;;;;;;;16.93;13.80;;;;;;;7.65;76.37;101093.23;1700519;84;21045;-73
2022/09/07 00:34:50;;;;;;;19.42;15.15;;;;;;;7.65;76.41;101099.86;1700993;84;21486;-72
2022/09/07 00:37:17;;;;;;;18.20;14.78;;;;;;;7.63;76.40;101103.16;1700527;82;21029;-73
2022/09/07 00:39:42;;;;;;;18.45;14.68;;;;;;;7.62;76.47;101099.68;1701015;84;21085;-72
2022/09/07 00:42:09;;;;;;;19.75;13.68;;;;;;;7.60;76.36;101097.17;1700723;84;21117;-72
2022/09/07 00:45:02;;;;;;;18.10;13.83;;;;;;;7.59;76.37;101091.54;1700853;84;21002;-73
2022/09/07 00:47:59;;;;;;;17.70;14.83;;;;;;;7.60;76.45;101092.36;1701025;84;21042;-73
2022/09/07 00:50:39;;;;;;;17.93;14.57;;;;;;;7.59;76.47;101088.03;1668323;84;21570;-72
2022/09/07 00:53:11;;;;;;;20.23;14.83;;;;;;;7.58;76.46;101084.55;1721751;83;21001;-72
2022/09/07 00:55:42;;;;;;;21.33;16.03;;;;;;;7.57;76.51;101080.25;1730471;82;21129;-72
2022/09/07 00:58:08;;;;;;;18.97;15.30;;;;;;;7.56;76.47;101089.17;1699779;83;21074;-73
2022/09/07 01:00:36;;;;;;;19.20;14.87;;;;;;;7.54;76.46;101083.19;1694904;84;21078;-73
2022/09/07 01:03:03;;;;;;;19.83;13.83;;;;;;;7.50;76.53;101073.87;1695246;84;21518;-74
2022/09/07 01:05:46;;;;;;;19.70;15.20;;;;;;;7.47;76.62;101070.67;1694918;83;21506;-73
2022/09/07 01:08:13;;;;;;;18.10;15.70;;;;;;;7.44;76.76;101073.15;1696333;84;21145;-72
2022/09/07 01:10:39;;;;;;;17.17;14.93;;;;;;;7.42;76.80;101076.41;1695363;85;21073;-73
2022/09/07 01:13:05;;;;;;;17.70;14.07;;;;;;;7.41;76.92;101073.44;1682014;84;21030;-73
2022/09/07 01:15:52;;;;;;;19.23;14.47;;;;;;;7.41;76.91;101070.78;1700331;84;21462;-74
2022/09/07 01:21:56;;;;;;;18.70;15.13;;;;;;;7.40;77.16;101067.78;1785960;79;22915;-73
2022/09/07 01:24:46;;;;;;;20.03;15.60;;;;;;;7.37;77.15;101066.77;1738815;81;21066;-74
2022/09/07 01:27:40;;;;;;;23.47;16.20;;;;;;;7.36;77.22;101065.08;1765691;81;21064;-72
2022/09/07 01:30:22;;;;;;;19.63;15.87;;;;;;;7.35;77.22;101065.59;1741517;81;21014;-73
2022/09/07 01:33:11;;;;;;;18.90;16.03;;;;;;;7.36;77.30;101061.93;1734371;82;21577;-73
2022/09/07 01:36:27;;;;;;;18.67;15.03;;;;;;;7.40;77.23;101061.14;1727085;83;21150;-72
2022/09/07 01:39:01;;;;;;;24.53;15.67;;;;;;;7.42;77.08;101060.50;1727186;82;21023;-72
2022/09/07 01:41:59;;;;;;;18.70;15.53;;;;;;;7.39;76.92;101058.99;1742225;82;21006;-72
2022/09/07 01:44:46;;;;;;;18.03;14.70;;;;;;;7.35;76.83;101054.98;1752930;82;21017;-72
2022/09/07 01:47:29;;;;;;;20.40;15.53;;;;;;;7.32;76.94;101059.74;1752480;82;21022;-72
2022/09/07 01:50:21;;;;;;;21.40;17.43;;;;;;;7.30;76.98;101055.08;1753256;82;21057;-72
2022/09/07 01:53:05;;;;;;;22.33;15.87;;;;;;;7.29;76.94;101048.09;1752457;82;21041;-72
2022/09/07 01:55:37;;;;;;;18.50;15.50;;;;;;;7.24;76.86;101053.86;1753227;82;21594;-73
2022/09/07 01:58:20;;;;;;;17.80;15.63;;;;;;;7.18;76.88;101052.64;1752974;82;21093;-72
2022/09/07 02:01:04;;;;;;;17.87;14.93;;;;;;;7.16;76.90;101043.17;1752887;82;20991;-72
2022/09/07 02:03:48;;;;;;;21.40;15.70;;;;;;;7.12;77.00;101048.41;1752319;82;21062;-73
2022/09/07 02:06:23;;;;;;;19.67;15.43;;;;;;;7.10;77.02;101041.95;1753175;81;21501;-73
2022/09/07 02:09:02;;;;;;;20.87;15.57;;;;;;;7.09;77.13;101044.24;1753004;82;20987;-73
2022/09/07 02:11:36;;;;;;;18.87;15.47;;;;;;;7.09;77.15;101044.24;1752944;82;21072;-73
2022/09/07 02:14:27;;;;;;;19.50;14.67;;;;;;;7.08;77.10;101044.39;1752987;82;21046;-72
2022/09/07 02:17:01;;;;;;;22.03;15.40;;;;;;;7.06;77.08;101043.20;1744666;82;21066;-72
2022/09/07 02:19:34;;;;;;;18.17;15.87;;;;;;;7.04;77.06;101042.52;1728733;83;21571;-73
2022/09/07 02:22:05;;;;;;;20.60;16.47;;;;;;;7.01;77.05;101038.86;1732536;82;21010;-73
2022/09/07 02:24:39;;;;;;;22.67;16.17;;;;;;;6.97;77.11;101034.84;1734372;82;21057;-74
2022/09/07 02:27:13;;;;;;;20.10;15.70;;;;;;;6.91;77.20;101040.70;1737895;82;21442;-72
2022/09/07 02:29:42;;;;;;;25.67;14.87;;;;;;;6.90;77.40;101040.38;1730568;81;21018;-73
2022/09/07 02:32:08;;;;;;;18.37;15.03;;;;;;;6.89;77.49;101037.37;1726842;83;21050;-73
2022/09/07 02:34:36;;;;;;;18.87;15.27;;;;;;;6.87;77.51;101033.54;1732919;83;21018;-74
2022/09/07 02:37:06;;;;;;;19.77;15.13;;;;;;;6.85;77.47;101030.20;1734666;83;20990;-73
2022/09/07 02:39:33;;;;;;;19.50;14.40;;;;;;;6.82;77.58;101030.52;1720348;83;21042;-73
2022/09/07 02:42:00;;;;;;;20.80;14.20;;;;;;;6.78;77.63;101032.63;1728126;82;21536;-74
2022/09/07 02:44:33;;;;;;;20.27;14.87;;;;;;;6.76;77.71;101033.27;1730030;82;20982;-72
2022/09/07 02:47:18;;;;;;;18.93;14.53;;;;;;;6.71;77.79;101031.53;1752395;82;21090;-73
2022/09/07 02:50:27;;;;;;;18.17;15.10;;;;;;;6.65;77.92;101034.77;1752110;82;21085;-72
2022/09/07 02:53:13;;;;;;;22.95;16.57;;;;;;;6.59;78.12;101033.55;1751382;82;21463;-73
2022/09/07 02:56:11;;;;;;;17.93;14.67;;;;;;;6.54;78.36;101034.95;1752337;82;21070;-73
2022/09/07 02:59:08;;;;;;;20.82;14.90;;;;;;;6.51;78.50;101037.88;1752954;82;20978;-73
2022/09/07 03:02:04;;;;;;;21.62;15.72;;;;;;;6.45;78.75;101037.97;1751716;82;21006;-74
2022/09/07 03:04:42;;;;;;;20.17;15.00;;;;;;;6.41;78.91;101038.75;1746501;81;21113;-73
2022/09/07 03:07:23;;;;;;;21.23;15.50;;;;;;;6.37;79.10;101036.05;1722504;83;21141;-73
2022/09/07 03:09:53;;;;;;;18.53;14.63;;;;;;;6.35;79.20;101031.88;1713248;83;21029;-73
2022/09/07 03:12:20;;;;;;;25.03;16.37;;;;;;;6.36;79.31;101032.21;1714746;82;21144;-72
2022/09/07 03:14:46;;;;;;;20.77;15.57;;;;;;;6.36;79.38;101033.53;1752294;82;21074;-73
2022/09/07 03:17:13;;;;;;;18.70;14.65;;;;;;;6.37;79.41;101030.75;1726183;82;21012;-73
2022/09/07 03:19:40;;;;;;;21.43;15.67;;;;;;;6.37;79.47;101033.40;1697526;84;21101;-72
2022/09/07 03:22:06;;;;;;;18.48;15.58;;;;;;;6.37;79.44;101030.75;1699859;84;20997;-74
2022/09/07 03:24:32;;;;;;;20.33;15.63;;;;;;;6.40;79.38;101030.94;1682628;85;21930;-72
2022/09/07 03:26:59;;;;;;;17.80;15.28;;;;;;;6.40;79.40;101033.13;1702234;84;21049;-72
2022/09/07 03:29:25;;;;;;;17.53;15.17;;;;;;;6.42;79.51;101028.52;1711756;82;21021;-74
2022/09/07 03:31:52;;;;;;;19.27;15.10;;;;;;;6.45;79.38;101031.35;1719891;83;21046;-72
2022/09/07 03:34:18;;;;;;;;;;;;;;;6.44;79.25;101032.31;1721884;83;21057;-72
2022/09/07 03:36:44;;;;;;;18.73;14.40;;;;;;;6.43;79.24;101023.55;1714631;82;20448;-71
2022/09/07 03:39:12;;;;;;;20.65;16.05;;;;;;;6.39;79.49;101027.47;1702290;83;21070;-72
2022/09/07 03:41:38;;;;;;;20.73;16.00;;;;;;;6.41;79.40;101026.83;1702047;82;21082;-73
2022/09/07 03:44:06;;;;;;;21.65;15.05;;;;;;;6.47;79.45;101024.59;1702338;82;21043;-72
2022/09/07 03:46:34;;;;;;;18.73;15.80;;;;;;;6.54;79.53;101027.84;1701813;83;21002;-72
2022/09/07 03:49:02;;;;;;;22.58;16.52;;;;;;;6.73;79.87;101030.89;1697710;84;21042;-72
2022/09/07 03:51:28;;;;;;;23.00;15.67;;;;;;;7.07;79.86;101029.48;1691807;85;21587;-74
2022/09/07 03:53:54;;;;;;;21.73;15.83;;;;;;;7.50;79.11;101032.75;1692071;85;21026;-73
2022/09/07 03:56:24;;;;;;;24.37;15.28;;;;;;;8.07;78.42;101028.41;1691562;83;21833;-73
2022/09/07 03:58:53;;;;;;;20.67;13.23;;;;;;;8.73;75.67;101029.65;1691933;84;21070;-74
2022/09/07 04:01:23;;;;;;;22.97;13.53;;;;;;;9.44;72.76;101022.23;1704940;83;21506;-74
2022/09/07 04:03:50;;;;;;;18.27;14.13;;;;;;;10.11;70.13;101026.55;1716840;83;21518;-73
2022/09/07 04:06:18;;;;;;;19.00;14.93;;;;;;;10.80;67.63;101023.42;1735506;82;21154;-74
2022/09/07 04:08:46;;;;;;;18.32;15.00;;;;;;;11.41;65.05;101029.75;1737240;82;20991;-74
2022/09/07 04:11:17;;;;;;;17.40;13.83;;;;;;;12.00;62.69;101029.70;1737257;83;21487;-71
2022/09/07 04:13:45;;;;;;;17.30;14.73;;;;;;;12.56;60.27;101027.44;1737489;82;21121;-70
2022/09/07 04:16:18;;;;;;;21.02;14.85;;;;;;;13.12;58.10;101026.92;1737235;82;21117;-71
2022/09/07 04:18:48;;;;;;;18.70;13.55;;;;;;;13.65;55.92;101029.36;1737469;82;21038;-71
2022/09/07 04:21:16;;;;;;;20.70;13.83;;;;;;;14.25;53.39;101021.81;1737086;82;21502;-72
2022/09/07 04:23:43;;;;;;;14.90;13.08;;;;;;;14.89;51.91;101021.27;1737267;82;21031;-71
2022/09/07 04:26:22;;;;;;;15.72;13.60;;;;;;;15.45;50.56;101024.23;1737420;82;21171;-71
2022/09/07 04:28:50;;;;;;;17.17;13.68;;;;;;;15.98;48.49;101021.62;1736776;82;21023;-71
2022/09/07 04:31:18;;;;;;;16.10;12.60;;;;;;;17.09;45.14;101022.09;1737453;82;21514;-72
2022/09/07 04:33:47;;;;;;;14.95;12.90;;;;;;;17.09;45.14;101022.09;1737334;82;21591;-71
2022/09/07 04:36:15;;;;;;;16.67;13.00;;;;;;;17.52;43.95;101023.30;1737250;82;21019;-72
2022/09/07 04:38:41;;;;;;;17.30;12.13;;;;;;;17.84;42.96;101023.28;1736514;82;21099;-72
2022/09/07 04:41:17;;;;;;;16.05;12.98;;;;;;;18.05;42.38;101021.56;1737238;82;21428;-73
2022/09/07 04:43:45;;;;;;;16.67;11.78;;;;;;;18.34;41.50;101021.09;1737441;82;21066;-71
2022/09/07 04:46:22;;;;;;;16.80;11.90;;;;;;;18.66;40.93;101013.68;1737326;82;21526;-71
2022/09/07 04:48:52;;;;;;;13.62;10.40;;;;;;;19.02;39.93;101022.83;1737124;82;21027;-74
2022/09/07 04:51:20;;;;;;;15.08;10.98;;;;;;;19.34;38.91;101015.31;1737504;82;21563;-75
2022/09/07 04:53:49;;;;;;;12.13;9.38;;;;;;;19.62;38.52;101012.52;1736732;82;21638;-74
2022/09/07 04:56:17;;;;;;;5.22;4.75;;;;;;;19.91;37.25;101017.61;1737278;82;21507;-76
2022/09/07 04:58:45;;;;;;;4.30;2.77;;;;;;;20.21;34.71;101016.66;1737426;82;21526;-76
2022/09/07 05:01:14;;;;;;;3.52;2.90;;;;;;;20.35;33.07;101018.07;1737304;82;21054;-77
2022/09/07 05:03:41;;;;;;;2.95;1.90;;;;;;;20.47;32.52;101018.59;1737269;82;21035;-79
2022/09/07 05:06:09;;;;;;;3.10;2.20;;;;;;;20.47;31.70;101020.76;1737430;82;21527;-76
2022/09/07 05:08:45;;;;;;;2.77;2.33;;;;;;;20.14;31.17;100978.09;1736551;82;21565;-78
2022/09/07 05:11:13;;;;;;;2.83;1.73;;;;;;;20.24;31.16;101013.48;1737677;82;21549;-78
2022/09/07 05:13:40;;;;;;;1.90;1.65;;;;;;;20.27;31.55;101014.38;1737278;82;21300;-79
2022/09/07 05:16:11;;;;;;;2.27;1.62;;;;;;;20.47;31.54;101018.59;1736870;82;21063;-75
2022/09/07 05:18:37;;;;;;;2.85;1.50;;;;;;;20.76;31.19;101012.21;1736996;82;21130;-76
2022/09/07 05:21:17;;;;;;;4.03;1.60;;;;;;;20.94;29.80;100999.55;1737090;82;21075;-79
2022/09/07 05:23:46;;;;;;;3.87;2.22;;;;;;;20.97;29.88;101009.91;1702344;82;21105;-79
2022/09/07 05:26:13;;;;;;;2.00;1.90;;;;;;;20.85;29.75;101011.82;1737367;82;21010;-78
2022/09/07 05:28:39;;;;;;;5.50;1.62;;;;;;;20.69;29.89;101010.16;1737359;82;21011;-81
2022/09/07 05:31:07;;;;;;;;;;;;;;;20.65;29.88;101004.94;1740094;82;21078;-76
2022/09/07 05:33:34;;;;;;;3.60;2.45;;;;;;;20.48;30.33;101007.52;1736913;83;20422;-80
2022/09/07 05:36:00;;;;;;;1.30;1.20;;;;;;;20.48;30.23;101007.52;1736679;82;21011;-74
2022/09/07 05:38:27;;;;;;;1.77;1.65;;;;;;;20.35;30.11;101007.24;1736903;82;21063;-78
2022/09/07 05:40:54;;;;;;;2.87;1.65;;;;;;;20.34;30.30;101008.32;1736712;82;21038;-79
2022/09/07 05:43:20;;;;;;;2.72;1.30;;;;;;;20.36;30.20;101008.06;1736576;82;21058;-77
2022/09/07 05:45:47;;;;;;;1.85;1.30;;;;;;;20.32;30.04;101009.05;1736506;82;21534;-76
2022/09/07 05:48:14;;;;;;;1.65;1.47;;;;;;;20.20;30.41;101008.26;1736498;82;21027;-79
2022/09/07 05:50:46;;;;;;;4.12;2.55;;;;;;;20.34;30.01;101001.55;1737005;82;21003;-76
2022/09/07 05:53:12;;;;;;;4.62;3.27;;;;;;;20.62;29.98;100999.98;1732699;82;21027;-78
2022/09/07 05:55:38;;;;;;;;;;;;;;;20.91;29.44;101000.86;1739657;82;21006;-76
2022/09/07 05:58:04;;;;;;;4.08;2.22;;;;;;;21.06;29.25;100987.30;1736518;82;20099;-78
2022/09/07 06:00:30;;;;;;;3.87;2.30;;;;;;;21.09;29.21;101000.38;1736679;82;21022;-78
2022/09/07 06:02:57;;;;;;;2.40;2.12;;;;;;;21.20;28.82;101000.85;1737025;82;21082;-81
2022/09/07 06:05:24;;;;;;;3.25;2.17;;;;;;;21.04;28.94;101001.11;1736840;82;21106;-85
2022/09/07 06:07:50;;;;;;;;;;;;;;;20.91;29.39;100995.98;1739937;82;21525;-83
2022/09/07 06:10:16;;;;;;;3.25;2.20;;;;;;;20.89;29.61;101003.50;1690883;81;20135;-84
2022/09/07 06:12:46;;;;;;;2.42;1.20;;;;;;;20.86;29.79;101002.10;1697291;83;21110;-81
2022/09/07 06:15:14;;;;;;;5.35;1.40;;;;;;;20.85;29.83;101003.70;1724915;83;21036;-83
2022/09/07 06:17:41;;;;;;;3.70;2.10;;;;;;;20.73;30.01;101003.20;1725086;81;20995;-84
2022/09/07 06:20:08;;;;;;;5.90;0.98;;;;;;;20.63;29.81;101000.83;1646071;86;21558;-83
2022/09/07 06:22:36;;;;;;;2.70;1.30;;;;;;;20.46;30.20;101004.77;1701986;83;21055;-84
2022/09/07 06:25:04;;;;;;;4.03;1.25;;;;;;;20.32;30.14;101013.12;1724604;83;21002;-82
2022/09/07 06:27:30;;;;;;;8.45;2.02;;;;;;;20.26;30.37;101015.42;1724599;83;21011;-81
2022/09/07 06:29:56;;;;;;;;;;;;;;;20.19;30.24;101013.36;1726841;82;21815;-83
2022/09/07 06:32:23;;;;;;;1.77;0.93;;;;;;;20.12;30.72;101017.56;1724592;82;20135;-82
2022/09/07 06:34:49;;;;;;;3.58;1.57;;;;;;;20.00;30.39;100991.86;1724901;83;21075;-82
2022/09/07 06:37:16;;;;;;;3.20;1.30;;;;;;;20.16;30.53;101009.80;1646319;84;21591;-84
2022/09/07 06:39:42;;;;;;;1.52;0.95;;;;;;;20.28;30.17;101014.66;1724990;82;21111;-83
2022/09/07 06:42:08;;;;;;;2.62;1.75;;;;;;;20.22;30.29;101016.42;1724422;83;22011;-81
2022/09/07 06:44:35;;;;;;;3.85;2.12;;;;;;;20.08;29.95;101021.80;1627404;87;21018;-83
2022/09/07 06:47:01;;;;;;;5.65;1.12;;;;;;;19.99;30.37;101024.55;1634404;88;21048;-83
2022/09/07 06:49:29;;;;;;;4.67;2.70;;;;;;;20.12;29.75;101024.33;1716344;82;21026;-83
2022/09/07 06:51:56;;;;;;;3.25;1.65;;;;;;;20.00;29.71;101018.91;1737238;82;21024;-85
2022/09/07 06:54:22;;;;;;;;;;;;;;;19.63;30.21;101010.94;1739548;82;21708;-82
2022/09/07 06:56:48;;;;;;;0.60;0.40;;;;;;;19.21;29.89;101016.86;1737121;82;20131;-82
2022/09/07 06:59:14;;;;;;;3.70;1.50;;;;;;;18.60;30.61;101019.98;1737609;82;21003;-81
2022/09/07 07:01:40;;;;;;;1.82;1.07;;;;;;;18.23;31.34;101026.69;1714429;82;21019;-81
2022/09/07 07:04:06;;;;;;;1.98;0.80;;;;;;;17.90;32.07;101023.78;1737104;82;21030;-81
2022/09/07 07:06:38;;;;;;;2.65;0.93;;;;;;;17.68;32.69;101024.63;1737347;82;21518;-81
2022/09/07 07:09:07;;;;;;;0.50;0.50;;;;;;;17.49;32.80;101020.50;1736813;82;21470;-80
2022/09/07 07:11:36;;;;;;;1.50;1.40;;;;;;;17.26;33.53;101029.15;1737149;82;21058;-79
2022/09/07 07:14:03;;;;;;;2.75;0.95;;;;;;;17.07;33.17;101024.70;1737110;82;21015;-82
2022/09/07 07:16:32;;;;;;;2.95;0.65;;;;;;;16.92;33.58;101021.75;1737526;82;21094;-81
2022/09/07 07:18:58;;;;;;;2.87;0.53;;;;;;;16.79;33.80;101023.12;1737675;82;20975;-81
2022/09/07 07:21:25;;;;;;;1.25;1.00;;;;;;;16.55;33.69;101032.71;1737163;82;21154;-79
2022/09/07 07:23:52;;;;;;;;;;;;;;;16.55;33.69;101032.71;1740208;82;21114;-79
2022/09/07 07:26:22;;;;;;;3.55;0.90;;;;;;;16.47;34.55;101025.69;1737007;82;20430;-80
2022/09/07 07:28:50;;;;;;;0.88;0.50;;;;;;;16.43;34.23;101027.16;1737529;81;21054;-81
2022/09/07 07:31:19;;;;;;;0.82;0.65;;;;;;;16.32;33.80;101027.80;1737883;82;20999;-82
2022/09/07 07:33:47;;;;;;;0.55;0.28;;;;;;;16.25;33.95;101029.66;1737074;82;21074;-84
2022/09/07 07:36:18;;;;;;;0.72;0.40;;;;;;;16.14;33.87;101033.80;1738317;82;21078;-82
2022/09/07 07:38:47;;;;;;;0.45;0.37;;;;;;;16.03;34.11;101023.18;1738535;82;20995;-81
2022/09/07 07:41:15;;;;;;;0.50;0.30;;;;;;;16.00;34.42;101014.17;1737904;82;21035;-81
2022/09/07 07:43:43;;;;;;;0.47;0.25;;;;;;;16.08;33.79;101017.16;1715050;82;21284;-82
2022/09/07 07:46:16;;;;;;;3.62;0.47;;;;;;;16.12;33.61;101014.36;1737058;81;21111;-80
2022/09/07 07:48:46;;;;;;;2.55;0.70;;;;;;;16.14;33.58;101015.83;1713944;83;21173;-83
2022/09/07 07:51:13;;;;;;;6.50;0.50;;;;;;;16.18;33.83;101014.89;1736948;82;21106;-90
2022/09/07 07:53:40;;;;;;;0.55;0.50;;;;;;;16.23;33.48;101013.73;1737225;82;21502;-84
2022/09/07 07:56:09;;;;;;;1.57;0.30;;;;;;;16.25;33.33;101018.91;1736024;82;21043;-88
2022/09/07 07:58:37;;;;;;;1.95;0.37;;;;;;;16.12;33.38;101016.55;1737654;82;21137;-85
2022/09/07 08:01:09;;;;;;;2.72;1.65;;;;;;;16.05;33.81;101009.00;1737228;81;20995;-88
2022/09/07 08:03:38;;;;;;;4.12;2.40;;;;;;;16.07;33.70;101011.49;1736975;82;21328;-85
2022/09/07 08:06:07;;;;;;;0.75;0.72;;;;;;;16.12;34.02;101007.14;1736842;82;21142;-85
2022/09/07 08:08:36;;;;;;;2.65;0.50;;;;;;;16.24;34.03;100999.78;1735131;81;21042;-85
2022/09/07 08:11:10;;;;;;;0.30;0.20;;;;;;;16.37;33.20;100997.56;1714550;82;21086;-85
2022/09/07 08:13:39;;;;;;;0.28;0.10;;;;;;;16.38;33.76;100991.98;1736266;82;21510;-87
2022/09/07 08:16:06;;;;;;;0.75;0.20;;;;;;;16.48;33.01;100996.91;1714359;82;21003;-86
2022/09/07 08:18:35;;;;;;;1.22;0.10;;;;;;;16.51;32.70;100991.12;1738478;82;21051;-88
2022/09/07 08:21:12;;;;;;;0.40;0.13;;;;;;;16.54;31.96;100996.91;1737443;82;21479;-86
2022/09/07 08:23:40;;;;;;;0.17;0.10;;;;;;;16.53;31.98;100992.55;1737695;82;21535;-87
2022/09/07 08:26:07;;;;;;;0.85;0.15;;;;;;;16.53;32.07;100987.16;1737195;82;20991;-86
2022/09/07 08:28:37;;;;;;;0.50;0.17;;;;;;;16.60;31.74;100985.00;1737061;82;20999;-88
2022/09/07 08:31:08;;;;;;;0.35;0.30;;;;;;;16.64;31.85;100984.34;1737747;82;21606;-86
2022/09/07 08:33:37;;;;;;;1.45;0.35;;;;;;;16.72;31.34;100984.62;1737416;82;21599;-87
2022/09/07 08:36:10;;;;;;;0.40;0.20;;;;;;;16.79;31.61;100984.08;1737394;82;21464;-89
2022/09/07 08:38:37;;;;;;;1.90;0.30;;;;;;;16.79;31.15;100977.35;1737485;82;21023;-87
2022/09/07 08:45:06;;;;;;;0.40;0.37;;;;;;;16.62;31.36;100973.50;1737204;82;21530;-78
2022/09/07 08:47:43;;;;;;;1.45;0.45;;;;;;;16.42;32.45;100959.56;1737833;82;21011;-77
2022/09/07 08:50:37;;;;;;;3.10;0.62;;;;;;;16.43;32.38;100957.73;1737130;82;21088;-78
2022/09/07 08:53:14;;;;;;;1.67;0.40;;;;;;;16.46;32.46;100958.13;1737426;82;21066;-79
2022/09/07 08:56:00;;;;;;;0.68;0.23;;;;;;;16.44;32.25;100958.02;1737094;82;21105;-78
2022/09/07 08:58:42;;;;;;;1.95;0.50;;;;;;;16.38;32.60;100962.91;1737451;82;21581;-76
2022/09/07 09:01:12;;;;;;;0.20;0.20;;;;;;;16.37;32.58;100963.44;1736123;82;20994;-78
2022/09/07 09:03:40;;;;;;;0.70;0.40;;;;;;;16.40;32.75;100950.89;1737086;82;21115;-76
2022/09/07 09:06:24;;;;;;;0.37;0.20;;;;;;;16.49;32.43;100956.34;1713983;82;21514;-78
2022/09/07 09:09:08;;;;;;;0.35;0.25;;;;;;;16.58;32.57;100946.70;1736722;82;21037;-77
2022/09/07 09:12:00;;;;;;;0.88;0.35;;;;;;;16.68;32.14;100943.03;1736941;82;21623;-79
2022/09/07 09:14:53;;;;;;;1.15;0.40;;;;;;;16.69;32.48;100940.66;1737348;82;20987;-80
2022/09/07 09:17:28;;;;;;;0.70;0.37;;;;;;;16.73;32.90;100940.00;1736643;82;21491;-78
2022/09/07 09:20:15;;;;;;;0.65;0.20;;;;;;;16.80;32.73;100927.87;1736684;82;21085;-79
2022/09/07 09:22:43;;;;;;;0.93;0.30;;;;;;;16.91;32.71;100931.75;1737156;82;21078;-78
2022/09/07 09:25:20;;;;;;;0.75;0.37;;;;;;;17.06;32.52;100926.08;1737076;82;21530;-79
2022/09/07 09:27:48;;;;;;;1.20;0.25;;;;;;;17.20;32.21;100918.75;1737733;82;21527;-78
2022/09/07 09:30:21;;;;;;;0.60;0.40;;;;;;;17.29;31.65;100926.34;1737569;82;21073;-82
2022/09/07 09:32:51;;;;;;;0.82;0.20;;;;;;;17.30;31.05;100924.47;1738319;81;21124;-81
2022/09/07 09:35:38;;;;;;;1.77;0.30;;;;;;;17.25;30.84;100926.48;1737234;82;21066;-84
2022/09/07 09:38:28;;;;;;;0.30;0.20;;;;;;;17.16;31.38;100921.05;1737511;82;21506;-86
2022/09/07 09:44:53;;;;;;;0.55;0.10;;;;;;;17.18;31.48;100920.31;1736848;82;21062;-80
2022/09/07 09:47:31;;;;;;;;;;;;;;;17.22;31.17;100917.48;1740447;82;21529;-80
2022/09/07 09:50:03;;;;;;;0.75;0.20;;;;;;;17.23;31.29;100904.83;1737170;82;20179;-79
2022/09/07 09:52:34;;;;;;;2.58;0.20;;;;;;;17.16;30.62;100893.27;1737268;82;20999;-81
2022/09/07 09:55:04;;;;;;;0.68;0.10;;;;;;;17.15;31.06;100899.19;1737755;82;21014;-82
2022/09/07 09:57:51;;;;;;;0.90;0.20;;;;;;;17.20;31.09;100898.55;1737609;81;21075;-83
2022/09/07 10:00:22;;;;;;;9.00;0.30;;;;;;;17.27;30.74;100898.80;1737786;82;20995;-81
2022/09/07 10:03:03;;;;;;;0.53;0.10;;;;;;;17.26;30.39;100894.44;1737617;82;21051;-83
2022/09/07 10:05:40;;;;;;;0.78;0.10;;;;;;;17.21;30.42;100892.10;1737813;82;21058;-79
2022/09/07 10:08:27;;;;;;;1.37;0.20;;;;;;;17.34;30.84;100892.00;1737840;82;21075;-83
2022/09/07 10:11:07;;;;;;;2.95;0.30;;;;;;;17.34;30.84;100892.00;1737730;82;21034;-84
2022/09/07 10:13:50;;;;;;;0.57;0.20;;;;;;;17.40;30.41;100888.41;1736344;82;21050;-84
2022/09/07 10:16:16;;;;;;;0.40;0.30;;;;;;;17.45;30.77;100880.50;1736993;82;21058;-84
2022/09/07 10:18:57;;;;;;;3.45;0.30;;;;;;;17.43;30.27;100870.47;1714810;83;21144;-82
2022/09/07 10:21:29;;;;;;;0.90;0.10;;;;;;;17.39;30.29;100877.88;1737693;82;21499;-83
2022/09/07 10:24:10;;;;;;;0.93;0.20;;;;;;;17.39;30.27;100878.70;1737856;82;21023;-82
2022/09/07 10:26:38;;;;;;;1.60;0.70;;;;;;;17.40;30.05;100880.33;1737373;82;21058;-80
2022/09/07 10:29:28;;;;;;;1.12;0.30;;;;;;;17.47;30.05;100878.41;1737683;82;20979;-84
2022/09/07 10:32:22;;;;;;;1.35;0.82;;;;;;;17.47;30.05;100878.41;1738135;82;21003;-81
2022/09/07 10:34:59;;;;;;;0.85;0.30;;;;;;;17.50;30.13;100878.52;1737900;82;21042;-82
2022/09/07 10:37:58;;;;;;;2.00;0.20;;;;;;;17.43;30.54;100878.55;1737436;82;21043;-82
2022/09/07 10:40:53;;;;;;;1.72;0.13;;;;;;;17.46;30.01;100860.61;1718508;81;21007;-83
2022/09/07 10:43:39;;;;;;;0.30;0.30;;;;;;;17.46;30.01;100860.61;1738341;82;21055;-83
2022/09/07 10:46:30;;;;;;;1.52;0.20;;;;;;;17.55;30.45;100846.84;1737690;82;21034;-84
2022/09/07 10:49:30;;;;;;;2.45;0.35;;;;;;;17.66;30.29;100855.01;1737246;82;21443;-79
2022/09/07 10:52:14;;;;;;;3.70;1.55;;;;;;;17.75;30.29;100850.16;1736836;82;21186;-79
2022/09/07 10:54:57;;;;;;;2.15;0.65;;;;;;;17.76;29.80;100846.94;1736825;82;21050;-83
2022/09/07 10:57:41;;;;;;;0.30;0.30;;;;;;;17.73;30.02;100849.56;1736648;82;20960;-76
2022/09/07 11:00:17;;;;;;;0.30;0.30;;;;;;;17.74;30.17;100850.37;1737317;82;21027;-75
2022/09/07 11:03:06;;;;;;;2.02;0.72;;;;;;;17.78;29.74;100846.19;1736946;82;21033;-75
2022/09/07 11:05:53;;;;;;;5.25;0.65;;;;;;;17.73;29.82;100850.91;1736623;82;20979;-76
2022/09/07 11:08:41;;;;;;;0.40;0.20;;;;;;;17.73;29.47;100840.66;1736644;82;21631;-77
2022/09/07 11:11:33;;;;;;;2.67;0.60;;;;;;;17.71;30.14;100835.48;1737086;82;21070;-75
2022/09/07 11:14:09;;;;;;;1.35;0.20;;;;;;;17.66;29.69;100829.40;1714255;82;21026;-77
2022/09/07 11:16:39;;;;;;;2.58;0.37;;;;;;;17.58;29.88;100827.54;1737022;81;21086;-77
2022/09/07 11:19:19;;;;;;;4.33;0.75;;;;;;;17.56;30.15;100825.59;1714242;82;21586;-79
2022/09/07 11:22:11;;;;;;;2.05;0.20;;;;;;;17.59;30.21;100825.12;1736874;82;21051;-76
2022/09/07 11:24:48;;;;;;;3.40;0.20;;;;;;;17.66;30.05;100829.40;1736608;82;21026;-78
2022/09/07 11:31:41;;;;;;;0.95;0.20;;;;;;;17.78;30.05;100816.53;1736674;83;21562;-76
2022/09/07 11:34:31;;;;;;;0.40;0.20;;;;;;;17.74;29.69;100805.89;1737242;82;21503;-75
2022/09/07 11:37:17;;;;;;;0.85;0.13;;;;;;;17.68;29.74;100810.31;1736699;82;21069;-77
2022/09/07 11:40:04;;;;;;;0.30;0.20;;;;;;;17.62;29.99;100807.98;1707748;82;21111;-79
2022/09/07 11:42:40;;;;;;;0.65;0.20;;;;;;;17.61;30.19;100806.36;1737328;82;21082;-76
2022/09/07 11:45:40;;;;;;;0.72;0.30;;;;;;;17.61;30.24;100796.08;1736931;82;21026;-79
2022/09/07 11:48:39;;;;;;;1.30;0.30;;;;;;;17.63;30.11;100793.48;1736995;81;21890;-79
2022/09/07 11:51:16;;;;;;;5.20;1.70;;;;;;;17.64;30.07;100791.06;1736919;82;21538;-77
2022/09/07 11:53:48;;;;;;;0.55;0.30;;;;;;;17.67;30.34;100781.72;1737277;82;21033;-76
2022/09/07 11:56:23;;;;;;;1.40;0.55;;;;;;;17.66;30.32;100787.62;1737461;82;21182;-75
2022/09/07 11:59:15;;;;;;;2.60;0.42;;;;;;;17.66;30.25;100773.32;1735959;82;21161;-77
2022/09/07 12:02:16;;;;;;;2.72;0.33;;;;;;;17.65;30.04;100776.55;1737152;82;21483;-71
2022/09/07 12:04:57;;;;;;;0.90;0.60;;;;;;;17.51;29.98;100752.13;1737000;82;21538;-76
2022/09/07 12:07:51;;;;;;;1.32;0.57;;;;;;;17.70;29.87;100768.59;1736586;82;21523;-75
2022/09/07 12:10:34;;;;;;;0.50;0.20;;;;;;;17.71;29.67;100768.09;1663894;83;21073;-77